sensor_id;sensor_type;location;lat;lon;timestamp;temperature;humidity
9666;DHT22;4871;52.004;5.924;2023-05-07T00:00:00;16.3;61.0
9666;DHT22;4871;52.004;5.924;2023-05-07T00:01:00;16.3;60.3
9666;DHT22;4871;52.004;5.924;2023-05-07T00:02:00;16.3;60.2
9666;DHT22;4871;52.004;5.924;2023-05-07T00:03:01;16.2;60.6
9666;DHT22;4871;52.004;5.924;2023-05-07T00:04:00;16.2;60.5
9666;DHT22;4871;52.004;5.924;2023-05-07T00:05:00;16.2;60.3
9666;DHT22;4871;52.004;5.924;2023-05-07T00:06:00;16.2;60.5
9666;DHT22;4871;52.004;5.924;2023-05-07T00:07:00;16.2;61.0
9666;DHT22;4871;52.004;5.924;2023-05-07T00:08:00;16.2;60.2
9666;DHT22;4871;52.004;5.924;2023-05-07T00:09:00;16.2;60.5
9666;DHT22;4871;52.004;5.924;2023-05-07T00:10:00;16.2;60.9
9666;DHT22;4871;52.004;5.924;2023-05-07T00:11:00;16.2;60.5
9666;DHT22;4871;52.004;5.924;2023-05-07T00:12:00;16.2;60.7
9666;DHT22;4871;52.004;5.924;2023-05-07T00:13:00;16.2;60.7
9666;DHT22;4871;52.004;5.924;2023-05-07T00:14:00;16.1;60.4
9666;DHT22;4871;52.004;5.924;2023-05-07T00:15:00;16.1;60.9
9666;DHT22;4871;52.004;5.924;2023-05-07T00:16:00;16.1;60.3
9666;DHT22;4871;52.004;5.924;2023-05-07T00:17:00;16.1;60.6
9666;DHT22;4871;52.004;5.924;2023-05-07T00:18:00;16.1;60.4
9666;DHT22;4871;52.004;5.924;2023-05-07T00:19:00;16.1;60.7
9666;DHT22;4871;52.004;5.924;2023-05-07T00:20:00;16.1;60.7
9666;DHT22;4871;52.004;5.924;2023-05-07T00:21:00;16.1;60.3
9666;DHT22;4871;52.004;5.924;2023-05-07T00:22:00;16.1;60.5
9666;DHT22;4871;52.004;5.924;2023-05-07T00:23:00;16.1;60.6
9666;DHT22;4871;52.004;5.924;2023-05-07T00:24:00;16.1;60.3
9666;DHT22;4871;52.004;5.924;2023-05-07T00:25:00;16.1;60.7
9666;DHT22;4871;52.004;5.924;2023-05-07T00:26:00;16.1;60.7
9666;DHT22;4871;52.004;5.924;2023-05-07T00:27:00;16.1;60.3
9666;DHT22;4871;52.004;5.924;2023-05-07T00:28:03;16.1;60.3
9666;DHT22;4871;52.004;5.924;2023-05-07T00:29:00;16.1;60.6
9666;DHT22;4871;52.004;5.924;2023-05-07T00:30:00;16.1;60.4
9666;DHT22;4871;52.004;5.924;2023-05-07T00:31:00;16.0;60.5
9666;DHT22;4871;52.004;5.924;2023-05-07T00:32:00;16.0;60.5
9666;DHT22;4871;52.004;5.924;2023-05-07T00:33:00;16.0;60.8
9666;DHT22;4871;52.004;5.924;2023-05-07T00:34:00;16.0;60.6
9666;DHT22;4871;52.004;5.924;2023-05-07T00:35:00;16.0;60.6
9666;DHT22;4871;52.004;5.924;2023-05-07T00:36:02;16.0;60.7
9666;DHT22;4871;52.004;5.924;2023-05-07T00:37:00;16.0;60.6
9666;DHT22;4871;52.004;5.924;2023-05-07T00:38:00;16.0;60.4
9666;DHT22;4871;52.004;5.924;2023-05-07T00:39:01;15.9;60.9
9666;DHT22;4871;52.004;5.924;2023-05-07T00:40:00;16.0;60.6
9666;DHT22;4871;52.004;5.924;2023-05-07T00:41:02;15.9;60.7
9666;DHT22;4871;52.004;5.924;2023-05-07T00:42:00;15.9;60.8
9666;DHT22;4871;52.004;5.924;2023-05-07T00:43:00;15.9;60.9
9666;DHT22;4871;52.004;5.924;2023-05-07T00:44:02;15.9;61.0
9666;DHT22;4871;52.004;5.924;2023-05-07T00:45:00;15.9;60.6
9666;DHT22;4871;52.004;5.924;2023-05-07T00:46:01;15.9;61.3
9666;DHT22;4871;52.004;5.924;2023-05-07T00:47:01;15.9;61.1
9666;DHT22;4871;52.004;5.924;2023-05-07T00:48:01;15.9;61.2
9666;DHT22;4871;52.004;5.924;2023-05-07T00:49:00;15.8;61.0
9666;DHT22;4871;52.004;5.924;2023-05-07T00:50:00;15.8;61.0
9666;DHT22;4871;52.004;5.924;2023-05-07T00:51:00;15.8;60.9
9666;DHT22;4871;52.004;5.924;2023-05-07T00:52:01;15.8;60.9
9666;DHT22;4871;52.004;5.924;2023-05-07T00:53:00;15.8;61.0
9666;DHT22;4871;52.004;5.924;2023-05-07T00:54:02;15.8;60.9
9666;DHT22;4871;52.004;5.924;2023-05-07T00:55:04;15.8;61.2
9666;DHT22;4871;52.004;5.924;2023-05-07T00:56:00;15.8;60.6
9666;DHT22;4871;52.004;5.924;2023-05-07T00:57:01;15.8;60.6
9666;DHT22;4871;52.004;5.924;2023-05-07T00:58:00;15.8;60.8
9666;DHT22;4871;52.004;5.924;2023-05-07T00:59:00;15.7;60.7
9666;DHT22;4871;52.004;5.924;2023-05-07T01:00:01;15.8;61.0
9666;DHT22;4871;52.004;5.924;2023-05-07T01:01:00;15.7;61.1
9666;DHT22;4871;52.004;5.924;2023-05-07T01:02:00;15.7;61.0
9666;DHT22;4871;52.004;5.924;2023-05-07T01:03:00;15.7;61.0
9666;DHT22;4871;52.004;5.924;2023-05-07T01:04:00;15.7;60.7
9666;DHT22;4871;52.004;5.924;2023-05-07T01:05:00;15.7;61.0
9666;DHT22;4871;52.004;5.924;2023-05-07T01:06:01;15.7;61.5
9666;DHT22;4871;52.004;5.924;2023-05-07T01:07:01;15.7;61.1
9666;DHT22;4871;52.004;5.924;2023-05-07T01:08:01;15.6;60.9
9666;DHT22;4871;52.004;5.924;2023-05-07T01:09:00;15.6;61.2
9666;DHT22;4871;52.004;5.924;2023-05-07T01:10:00;15.6;61.3
9666;DHT22;4871;52.004;5.924;2023-05-07T01:11:00;15.6;61.2
9666;DHT22;4871;52.004;5.924;2023-05-07T01:12:00;15.6;61.2
9666;DHT22;4871;52.004;5.924;2023-05-07T01:13:00;15.6;61.4
9666;DHT22;4871;52.004;5.924;2023-05-07T01:14:00;15.6;61.1
9666;DHT22;4871;52.004;5.924;2023-05-07T01:15:00;15.6;61.3
9666;DHT22;4871;52.004;5.924;2023-05-07T01:16:00;15.6;61.5
9666;DHT22;4871;52.004;5.924;2023-05-07T01:17:00;15.5;61.2
9666;DHT22;4871;52.004;5.924;2023-05-07T01:18:01;15.6;61.4
9666;DHT22;4871;52.004;5.924;2023-05-07T01:19:00;15.5;61.0
9666;DHT22;4871;52.004;5.924;2023-05-07T01:20:00;15.6;61.1
9666;DHT22;4871;52.004;5.924;2023-05-07T01:21:01;15.5;61.0
9666;DHT22;4871;52.004;5.924;2023-05-07T01:22:02;15.5;61.0
9666;DHT22;4871;52.004;5.924;2023-05-07T01:23:00;15.5;61.3
9666;DHT22;4871;52.004;5.924;2023-05-07T01:24:00;15.5;61.2
9666;DHT22;4871;52.004;5.924;2023-05-07T01:25:02;15.5;61.2
9666;DHT22;4871;52.004;5.924;2023-05-07T01:26:00;15.5;61.6
9666;DHT22;4871;52.004;5.924;2023-05-07T01:27:01;15.5;61.2
9666;DHT22;4871;52.004;5.924;2023-05-07T01:28:01;15.4;61.0
9666;DHT22;4871;52.004;5.924;2023-05-07T01:29:00;15.4;61.5
9666;DHT22;4871;52.004;5.924;2023-05-07T01:30:00;15.4;61.6
9666;DHT22;4871;52.004;5.924;2023-05-07T01:31:03;15.4;61.3
9666;DHT22;4871;52.004;5.924;2023-05-07T01:32:01;15.4;61.4
9666;DHT22;4871;52.004;5.924;2023-05-07T01:33:04;15.4;61.5
9666;DHT22;4871;52.004;5.924;2023-05-07T01:34:01;15.4;61.1
9666;DHT22;4871;52.004;5.924;2023-05-07T01:35:01;15.4;61.4
9666;DHT22;4871;52.004;5.924;2023-05-07T01:36:03;15.4;61.4
9666;DHT22;4871;52.004;5.924;2023-05-07T01:37:00;15.4;61.4
9666;DHT22;4871;52.004;5.924;2023-05-07T01:38:00;15.4;61.3
9666;DHT22;4871;52.004;5.924;2023-05-07T01:39:01;15.4;61.1
9666;DHT22;4871;52.004;5.924;2023-05-07T01:40:01;15.4;61.3
9666;DHT22;4871;52.004;5.924;2023-05-07T01:41:01;15.4;61.2
9666;DHT22;4871;52.004;5.924;2023-05-07T01:42:00;15.4;61.4
9666;DHT22;4871;52.004;5.924;2023-05-07T01:43:00;15.4;61.5
9666;DHT22;4871;52.004;5.924;2023-05-07T01:44:01;15.4;61.5
9666;DHT22;4871;52.004;5.924;2023-05-07T01:45:00;15.4;61.2
9666;DHT22;4871;52.004;5.924;2023-05-07T01:46:01;15.4;61.2
9666;DHT22;4871;52.004;5.924;2023-05-07T01:47:01;15.3;61.7
9666;DHT22;4871;52.004;5.924;2023-05-07T01:48:02;15.3;61.5
9666;DHT22;4871;52.004;5.924;2023-05-07T01:49:00;15.4;61.4
9666;DHT22;4871;52.004;5.924;2023-05-07T01:50:00;15.3;61.4
9666;DHT22;4871;52.004;5.924;2023-05-07T01:51:00;15.3;61.3
9666;DHT22;4871;52.004;5.924;2023-05-07T01:52:00;15.3;61.3
9666;DHT22;4871;52.004;5.924;2023-05-07T01:53:01;15.3;61.0
9666;DHT22;4871;52.004;5.924;2023-05-07T01:54:00;15.3;61.4
9666;DHT22;4871;52.004;5.924;2023-05-07T01:55:00;15.3;61.5
9666;DHT22;4871;52.004;5.924;2023-05-07T01:56:00;15.3;60.9
9666;DHT22;4871;52.004;5.924;2023-05-07T01:57:00;15.3;61.2
9666;DHT22;4871;52.004;5.924;2023-05-07T01:58:00;15.3;61.1
9666;DHT22;4871;52.004;5.924;2023-05-07T01:59:00;15.4;61.1
9666;DHT22;4871;52.004;5.924;2023-05-07T02:00:00;15.3;61.2
9666;DHT22;4871;52.004;5.924;2023-05-07T02:01:00;15.3;61.2
9666;DHT22;4871;52.004;5.924;2023-05-07T02:02:00;15.3;61.2
9666;DHT22;4871;52.004;5.924;2023-05-07T02:03:00;15.3;61.1
9666;DHT22;4871;52.004;5.924;2023-05-07T02:04:00;15.3;61.0
9666;DHT22;4871;52.004;5.924;2023-05-07T02:05:01;15.3;61.2
9666;DHT22;4871;52.004;5.924;2023-05-07T02:06:00;15.3;61.6
9666;DHT22;4871;52.004;5.924;2023-05-07T02:07:00;15.3;61.5
9666;DHT22;4871;52.004;5.924;2023-05-07T02:08:00;15.2;61.6
9666;DHT22;4871;52.004;5.924;2023-05-07T02:09:00;15.3;61.5
9666;DHT22;4871;52.004;5.924;2023-05-07T02:10:00;15.3;61.4
9666;DHT22;4871;52.004;5.924;2023-05-07T02:11:00;15.3;61.0
9666;DHT22;4871;52.004;5.924;2023-05-07T02:12:00;15.3;61.5
9666;DHT22;4871;52.004;5.924;2023-05-07T02:13:01;15.2;61.4
9666;DHT22;4871;52.004;5.924;2023-05-07T02:14:00;15.3;61.3
9666;DHT22;4871;52.004;5.924;2023-05-07T02:15:00;15.3;61.3
9666;DHT22;4871;52.004;5.924;2023-05-07T02:16:00;15.3;61.5
9666;DHT22;4871;52.004;5.924;2023-05-07T02:17:00;15.3;61.0
9666;DHT22;4871;52.004;5.924;2023-05-07T02:18:02;15.3;61.1
9666;DHT22;4871;52.004;5.924;2023-05-07T02:19:00;15.3;61.6
9666;DHT22;4871;52.004;5.924;2023-05-07T02:20:00;15.3;61.1
9666;DHT22;4871;52.004;5.924;2023-05-07T02:21:00;15.3;61.1
9666;DHT22;4871;52.004;5.924;2023-05-07T02:22:00;15.3;61.2
9666;DHT22;4871;52.004;5.924;2023-05-07T02:23:00;15.3;60.7
9666;DHT22;4871;52.004;5.924;2023-05-07T02:24:00;15.3;61.1
9666;DHT22;4871;52.004;5.924;2023-05-07T02:25:00;15.2;61.2
9666;DHT22;4871;52.004;5.924;2023-05-07T02:26:00;15.2;61.1
9666;DHT22;4871;52.004;5.924;2023-05-07T02:27:01;15.3;61.2
9666;DHT22;4871;52.004;5.924;2023-05-07T02:28:00;15.3;61.0
9666;DHT22;4871;52.004;5.924;2023-05-07T02:29:00;15.3;60.6
9666;DHT22;4871;52.004;5.924;2023-05-07T02:30:00;15.3;60.7
9666;DHT22;4871;52.004;5.924;2023-05-07T02:31:02;15.2;61.0
9666;DHT22;4871;52.004;5.924;2023-05-07T02:32:00;15.3;61.2
9666;DHT22;4871;52.004;5.924;2023-05-07T02:33:00;15.2;61.1
9666;DHT22;4871;52.004;5.924;2023-05-07T02:34:00;15.3;61.1
9666;DHT22;4871;52.004;5.924;2023-05-07T02:35:00;15.2;61.0
9666;DHT22;4871;52.004;5.924;2023-05-07T02:36:05;15.2;61.2
9666;DHT22;4871;52.004;5.924;2023-05-07T02:37:00;15.2;61.3
9666;DHT22;4871;52.004;5.924;2023-05-07T02:38:00;15.2;61.2
9666;DHT22;4871;52.004;5.924;2023-05-07T02:39:00;15.2;61.3
9666;DHT22;4871;52.004;5.924;2023-05-07T02:40:00;15.2;61.2
9666;DHT22;4871;52.004;5.924;2023-05-07T02:41:00;15.2;61.1
9666;DHT22;4871;52.004;5.924;2023-05-07T02:42:01;15.2;61.1
9666;DHT22;4871;52.004;5.924;2023-05-07T02:43:00;15.2;61.2
9666;DHT22;4871;52.004;5.924;2023-05-07T02:44:00;15.2;60.7
9666;DHT22;4871;52.004;5.924;2023-05-07T02:45:00;15.2;61.0
9666;DHT22;4871;52.004;5.924;2023-05-07T02:46:01;15.2;61.3
9666;DHT22;4871;52.004;5.924;2023-05-07T02:47:00;15.2;61.2
9666;DHT22;4871;52.004;5.924;2023-05-07T02:48:00;15.2;61.4
9666;DHT22;4871;52.004;5.924;2023-05-07T02:49:00;15.2;61.1
9666;DHT22;4871;52.004;5.924;2023-05-07T02:50:00;15.2;60.9
9666;DHT22;4871;52.004;5.924;2023-05-07T02:51:00;15.2;61.2
9666;DHT22;4871;52.004;5.924;2023-05-07T02:52:00;15.2;61.0
9666;DHT22;4871;52.004;5.924;2023-05-07T02:53:00;15.2;60.6
9666;DHT22;4871;52.004;5.924;2023-05-07T02:54:00;15.2;61.2
9666;DHT22;4871;52.004;5.924;2023-05-07T02:55:00;15.2;60.8
9666;DHT22;4871;52.004;5.924;2023-05-07T02:56:01;15.2;61.1
9666;DHT22;4871;52.004;5.924;2023-05-07T02:57:01;15.2;61.0
9666;DHT22;4871;52.004;5.924;2023-05-07T02:58:00;15.2;61.2
9666;DHT22;4871;52.004;5.924;2023-05-07T02:59:00;15.2;61.3
9666;DHT22;4871;52.004;5.924;2023-05-07T03:00:10;15.2;61.3
9666;DHT22;4871;52.004;5.924;2023-05-07T03:01:00;15.2;61.4
9666;DHT22;4871;52.004;5.924;2023-05-07T03:02:00;15.1;61.2
9666;DHT22;4871;52.004;5.924;2023-05-07T03:03:00;15.1;61.2
9666;DHT22;4871;52.004;5.924;2023-05-07T03:04:00;15.1;61.1
9666;DHT22;4871;52.004;5.924;2023-05-07T03:05:00;15.1;61.1
9666;DHT22;4871;52.004;5.924;2023-05-07T03:06:00;15.1;61.3
9666;DHT22;4871;52.004;5.924;2023-05-07T03:07:00;15.1;61.1
9666;DHT22;4871;52.004;5.924;2023-05-07T03:08:00;15.1;61.4
9666;DHT22;4871;52.004;5.924;2023-05-07T03:09:00;15.1;61.1
9666;DHT22;4871;52.004;5.924;2023-05-07T03:10:00;15.1;61.1
9666;DHT22;4871;52.004;5.924;2023-05-07T03:11:00;15.1;61.0
9666;DHT22;4871;52.004;5.924;2023-05-07T03:12:01;15.1;61.1
9666;DHT22;4871;52.004;5.924;2023-05-07T03:13:00;15.1;61.2
9666;DHT22;4871;52.004;5.924;2023-05-07T03:14:00;15.1;61.3
9666;DHT22;4871;52.004;5.924;2023-05-07T03:15:00;15.1;61.1
9666;DHT22;4871;52.004;5.924;2023-05-07T03:16:00;15.1;61.2
9666;DHT22;4871;52.004;5.924;2023-05-07T03:17:00;15.1;61.2
9666;DHT22;4871;52.004;5.924;2023-05-07T03:18:00;15.1;61.2
9666;DHT22;4871;52.004;5.924;2023-05-07T03:19:00;15.1;61.2
9666;DHT22;4871;52.004;5.924;2023-05-07T03:20:00;15.1;60.9
9666;DHT22;4871;52.004;5.924;2023-05-07T03:21:00;15.1;61.0
9666;DHT22;4871;52.004;5.924;2023-05-07T03:22:00;15.1;61.2
9666;DHT22;4871;52.004;5.924;2023-05-07T03:23:00;15.1;60.9
9666;DHT22;4871;52.004;5.924;2023-05-07T03:24:00;15.1;61.1
9666;DHT22;4871;52.004;5.924;2023-05-07T03:25:00;15.1;61.1
9666;DHT22;4871;52.004;5.924;2023-05-07T03:26:00;15.1;61.1
9666;DHT22;4871;52.004;5.924;2023-05-07T03:27:01;15.1;61.1
9666;DHT22;4871;52.004;5.924;2023-05-07T03:28:00;15.1;60.9
9666;DHT22;4871;52.004;5.924;2023-05-07T03:29:00;15.1;61.3
9666;DHT22;4871;52.004;5.924;2023-05-07T03:30:00;15.1;61.4
9666;DHT22;4871;52.004;5.924;2023-05-07T03:31:00;15.1;61.3
9666;DHT22;4871;52.004;5.924;2023-05-07T03:32:00;15.1;60.9
9666;DHT22;4871;52.004;5.924;2023-05-07T03:33:00;15.1;61.2
9666;DHT22;4871;52.004;5.924;2023-05-07T03:34:00;15.1;61.2
9666;DHT22;4871;52.004;5.924;2023-05-07T03:35:00;15.0;61.1
9666;DHT22;4871;52.004;5.924;2023-05-07T03:36:00;15.0;61.4
9666;DHT22;4871;52.004;5.924;2023-05-07T03:37:00;15.0;61.2
9666;DHT22;4871;52.004;5.924;2023-05-07T03:38:01;15.0;61.3
9666;DHT22;4871;52.004;5.924;2023-05-07T03:39:00;15.0;61.6
9666;DHT22;4871;52.004;5.924;2023-05-07T03:40:00;15.0;61.2
9666;DHT22;4871;52.004;5.924;2023-05-07T03:41:00;15.0;61.5
9666;DHT22;4871;52.004;5.924;2023-05-07T03:42:01;15.0;61.3
9666;DHT22;4871;52.004;5.924;2023-05-07T03:43:00;15.0;62.4
9666;DHT22;4871;52.004;5.924;2023-05-07T03:44:00;15.0;61.6
9666;DHT22;4871;52.004;5.924;2023-05-07T03:45:00;15.0;60.9
9666;DHT22;4871;52.004;5.924;2023-05-07T03:46:00;15.0;61.4
9666;DHT22;4871;52.004;5.924;2023-05-07T03:47:00;15.0;61.5
9666;DHT22;4871;52.004;5.924;2023-05-07T03:48:00;15.0;61.3
9666;DHT22;4871;52.004;5.924;2023-05-07T03:49:01;15.0;61.4
9666;DHT22;4871;52.004;5.924;2023-05-07T03:50:00;15.0;61.3
9666;DHT22;4871;52.004;5.924;2023-05-07T03:51:00;15.0;61.3
9666;DHT22;4871;52.004;5.924;2023-05-07T03:52:00;15.0;61.4
9666;DHT22;4871;52.004;5.924;2023-05-07T03:53:00;15.0;61.8
9666;DHT22;4871;52.004;5.924;2023-05-07T03:54:00;15.0;61.4
9666;DHT22;4871;52.004;5.924;2023-05-07T03:55:00;15.0;61.2
9666;DHT22;4871;52.004;5.924;2023-05-07T03:56:00;15.0;61.5
9666;DHT22;4871;52.004;5.924;2023-05-07T03:57:00;15.0;61.7
9666;DHT22;4871;52.004;5.924;2023-05-07T03:58:00;15.0;61.7
9666;DHT22;4871;52.004;5.924;2023-05-07T03:59:00;15.0;61.6
9666;DHT22;4871;52.004;5.924;2023-05-07T04:00:00;15.0;61.5
9666;DHT22;4871;52.004;5.924;2023-05-07T04:01:00;15.0;61.1
9666;DHT22;4871;52.004;5.924;2023-05-07T04:02:00;15.0;61.7
9666;DHT22;4871;52.004;5.924;2023-05-07T04:03:00;15.0;61.7
9666;DHT22;4871;52.004;5.924;2023-05-07T04:04:00;15.0;61.2
9666;DHT22;4871;52.004;5.924;2023-05-07T04:05:00;15.0;61.4
9666;DHT22;4871;52.004;5.924;2023-05-07T04:06:00;14.9;61.4
9666;DHT22;4871;52.004;5.924;2023-05-07T04:07:01;14.9;61.8
9666;DHT22;4871;52.004;5.924;2023-05-07T04:08:01;14.9;62.1
9666;DHT22;4871;52.004;5.924;2023-05-07T04:09:00;14.9;62.3
9666;DHT22;4871;52.004;5.924;2023-05-07T04:10:00;14.9;61.6
9666;DHT22;4871;52.004;5.924;2023-05-07T04:11:00;14.9;61.8
9666;DHT22;4871;52.004;5.924;2023-05-07T04:12:01;14.9;62.1
9666;DHT22;4871;52.004;5.924;2023-05-07T04:13:00;14.9;62.0
9666;DHT22;4871;52.004;5.924;2023-05-07T04:14:00;14.9;61.9
9666;DHT22;4871;52.004;5.924;2023-05-07T04:15:00;15.0;61.7
9666;DHT22;4871;52.004;5.924;2023-05-07T04:16:01;14.9;61.9
9666;DHT22;4871;52.004;5.924;2023-05-07T04:17:00;14.9;61.8
9666;DHT22;4871;52.004;5.924;2023-05-07T04:18:00;14.9;62.0
9666;DHT22;4871;52.004;5.924;2023-05-07T04:19:00;14.9;62.0
9666;DHT22;4871;52.004;5.924;2023-05-07T04:20:00;14.9;61.3
9666;DHT22;4871;52.004;5.924;2023-05-07T04:21:00;14.9;61.6
9666;DHT22;4871;52.004;5.924;2023-05-07T04:22:00;14.9;61.7
9666;DHT22;4871;52.004;5.924;2023-05-07T04:23:00;14.9;61.6
9666;DHT22;4871;52.004;5.924;2023-05-07T04:24:00;14.9;61.9
9666;DHT22;4871;52.004;5.924;2023-05-07T04:25:00;14.9;61.8
9666;DHT22;4871;52.004;5.924;2023-05-07T04:26:00;14.9;62.0
9666;DHT22;4871;52.004;5.924;2023-05-07T04:27:00;14.9;62.2
9666;DHT22;4871;52.004;5.924;2023-05-07T04:28:00;14.9;62.4
9666;DHT22;4871;52.004;5.924;2023-05-07T04:29:00;14.9;61.7
9666;DHT22;4871;52.004;5.924;2023-05-07T04:30:00;14.9;62.0
9666;DHT22;4871;52.004;5.924;2023-05-07T04:31:00;14.9;61.8
9666;DHT22;4871;52.004;5.924;2023-05-07T04:32:00;14.9;62.0
9666;DHT22;4871;52.004;5.924;2023-05-07T04:33:00;14.9;62.1
9666;DHT22;4871;52.004;5.924;2023-05-07T04:34:00;14.9;61.9
9666;DHT22;4871;52.004;5.924;2023-05-07T04:35:00;14.9;62.4
9666;DHT22;4871;52.004;5.924;2023-05-07T04:36:03;14.9;62.1
9666;DHT22;4871;52.004;5.924;2023-05-07T04:37:00;15.0;62.0
9666;DHT22;4871;52.004;5.924;2023-05-07T04:38:00;15.0;61.9
9666;DHT22;4871;52.004;5.924;2023-05-07T04:39:02;15.0;62.1
9666;DHT22;4871;52.004;5.924;2023-05-07T04:40:00;15.0;61.9
9666;DHT22;4871;52.004;5.924;2023-05-07T04:41:03;15.0;61.6
9666;DHT22;4871;52.004;5.924;2023-05-07T04:42:00;14.9;61.6
9666;DHT22;4871;52.004;5.924;2023-05-07T04:43:00;14.9;62.0
9666;DHT22;4871;52.004;5.924;2023-05-07T04:44:00;14.9;62.1
9666;DHT22;4871;52.004;5.924;2023-05-07T04:45:01;14.9;62.0
9666;DHT22;4871;52.004;5.924;2023-05-07T04:46:00;14.9;62.0
9666;DHT22;4871;52.004;5.924;2023-05-07T04:47:00;14.9;62.3
9666;DHT22;4871;52.004;5.924;2023-05-07T04:48:00;14.9;62.2
9666;DHT22;4871;52.004;5.924;2023-05-07T04:49:00;14.9;63.0
9666;DHT22;4871;52.004;5.924;2023-05-07T04:50:00;14.9;62.7
9666;DHT22;4871;52.004;5.924;2023-05-07T04:51:00;14.9;63.1
9666;DHT22;4871;52.004;5.924;2023-05-07T04:52:01;14.9;62.8
9666;DHT22;4871;52.004;5.924;2023-05-07T04:53:00;14.9;63.2
9666;DHT22;4871;52.004;5.924;2023-05-07T04:54:00;14.9;62.8
9666;DHT22;4871;52.004;5.924;2023-05-07T04:55:00;14.9;63.2
9666;DHT22;4871;52.004;5.924;2023-05-07T04:56:00;14.9;63.3
9666;DHT22;4871;52.004;5.924;2023-05-07T04:57:00;14.9;62.9
9666;DHT22;4871;52.004;5.924;2023-05-07T04:58:01;14.9;63.1
9666;DHT22;4871;52.004;5.924;2023-05-07T04:59:00;14.9;63.2
9666;DHT22;4871;52.004;5.924;2023-05-07T05:00:00;14.9;63.2
9666;DHT22;4871;52.004;5.924;2023-05-07T05:01:00;14.9;63.3
9666;DHT22;4871;52.004;5.924;2023-05-07T05:02:01;14.9;63.6
9666;DHT22;4871;52.004;5.924;2023-05-07T05:03:00;14.9;62.7
9666;DHT22;4871;52.004;5.924;2023-05-07T05:04:00;14.9;63.4
9666;DHT22;4871;52.004;5.924;2023-05-07T05:05:01;15.0;63.1
9666;DHT22;4871;52.004;5.924;2023-05-07T05:06:00;15.0;63.5
9666;DHT22;4871;52.004;5.924;2023-05-07T05:07:00;15.0;63.5
9666;DHT22;4871;52.004;5.924;2023-05-07T05:08:00;15.0;62.7
9666;DHT22;4871;52.004;5.924;2023-05-07T05:09:00;15.0;62.9
9666;DHT22;4871;52.004;5.924;2023-05-07T05:10:01;15.0;63.0
9666;DHT22;4871;52.004;5.924;2023-05-07T05:11:00;15.0;62.8
9666;DHT22;4871;52.004;5.924;2023-05-07T05:12:01;15.0;63.2
9666;DHT22;4871;52.004;5.924;2023-05-07T05:13:00;15.0;63.0
9666;DHT22;4871;52.004;5.924;2023-05-07T05:14:02;15.0;62.4
9666;DHT22;4871;52.004;5.924;2023-05-07T05:15:00;15.0;62.9
9666;DHT22;4871;52.004;5.924;2023-05-07T05:16:00;15.0;62.5
9666;DHT22;4871;52.004;5.924;2023-05-07T05:17:00;15.0;62.3
9666;DHT22;4871;52.004;5.924;2023-05-07T05:18:00;15.0;62.4
9666;DHT22;4871;52.004;5.924;2023-05-07T05:19:01;15.0;63.4
9666;DHT22;4871;52.004;5.924;2023-05-07T05:20:00;15.0;63.0
9666;DHT22;4871;52.004;5.924;2023-05-07T05:21:00;15.0;62.4
9666;DHT22;4871;52.004;5.924;2023-05-07T05:22:01;15.0;62.3
9666;DHT22;4871;52.004;5.924;2023-05-07T05:23:00;15.1;62.6
9666;DHT22;4871;52.004;5.924;2023-05-07T05:24:00;15.1;62.9
9666;DHT22;4871;52.004;5.924;2023-05-07T05:25:01;15.1;62.7
9666;DHT22;4871;52.004;5.924;2023-05-07T05:26:00;15.1;63.5
9666;DHT22;4871;52.004;5.924;2023-05-07T05:27:01;15.1;62.4
9666;DHT22;4871;52.004;5.924;2023-05-07T05:28:01;15.1;62.4
9666;DHT22;4871;52.004;5.924;2023-05-07T05:29:00;15.1;62.8
9666;DHT22;4871;52.004;5.924;2023-05-07T05:30:00;15.1;62.8
9666;DHT22;4871;52.004;5.924;2023-05-07T05:31:00;15.1;62.5
9666;DHT22;4871;52.004;5.924;2023-05-07T05:32:00;15.1;62.8
9666;DHT22;4871;52.004;5.924;2023-05-07T05:33:00;15.1;62.7
9666;DHT22;4871;52.004;5.924;2023-05-07T05:34:02;15.1;62.5
9666;DHT22;4871;52.004;5.924;2023-05-07T05:35:00;15.1;62.8
9666;DHT22;4871;52.004;5.924;2023-05-07T05:36:00;15.1;62.2
9666;DHT22;4871;52.004;5.924;2023-05-07T05:37:00;15.2;62.7
9666;DHT22;4871;52.004;5.924;2023-05-07T05:38:00;15.2;61.9
9666;DHT22;4871;52.004;5.924;2023-05-07T05:39:00;15.1;62.3
9666;DHT22;4871;52.004;5.924;2023-05-07T05:40:00;15.2;62.3
9666;DHT22;4871;52.004;5.924;2023-05-07T05:41:00;15.2;62.7
9666;DHT22;4871;52.004;5.924;2023-05-07T05:42:01;15.2;61.9
9666;DHT22;4871;52.004;5.924;2023-05-07T05:43:00;15.2;62.2
9666;DHT22;4871;52.004;5.924;2023-05-07T05:44:00;15.2;62.3
9666;DHT22;4871;52.004;5.924;2023-05-07T05:45:00;15.2;62.2
9666;DHT22;4871;52.004;5.924;2023-05-07T05:46:00;15.2;62.3
9666;DHT22;4871;52.004;5.924;2023-05-07T05:47:00;15.2;61.8
9666;DHT22;4871;52.004;5.924;2023-05-07T05:48:00;15.2;62.2
9666;DHT22;4871;52.004;5.924;2023-05-07T05:49:00;15.2;62.2
9666;DHT22;4871;52.004;5.924;2023-05-07T05:50:00;15.2;62.6
9666;DHT22;4871;52.004;5.924;2023-05-07T05:51:00;15.2;62.4
9666;DHT22;4871;52.004;5.924;2023-05-07T05:52:00;15.2;61.8
9666;DHT22;4871;52.004;5.924;2023-05-07T05:53:00;15.2;62.4
9666;DHT22;4871;52.004;5.924;2023-05-07T05:54:00;15.2;61.6
9666;DHT22;4871;52.004;5.924;2023-05-07T05:55:00;15.2;62.0
9666;DHT22;4871;52.004;5.924;2023-05-07T05:56:00;15.2;62.1
9666;DHT22;4871;52.004;5.924;2023-05-07T05:57:00;15.2;61.7
9666;DHT22;4871;52.004;5.924;2023-05-07T05:58:01;15.2;62.1
9666;DHT22;4871;52.004;5.924;2023-05-07T05:59:00;15.2;62.4
9666;DHT22;4871;52.004;5.924;2023-05-07T06:00:00;15.2;62.2
9666;DHT22;4871;52.004;5.924;2023-05-07T06:01:02;15.2;62.1
9666;DHT22;4871;52.004;5.924;2023-05-07T06:02:00;15.3;62.4
9666;DHT22;4871;52.004;5.924;2023-05-07T06:03:00;15.3;62.5
9666;DHT22;4871;52.004;5.924;2023-05-07T06:04:00;15.3;62.0
9666;DHT22;4871;52.004;5.924;2023-05-07T06:05:00;15.3;62.0
9666;DHT22;4871;52.004;5.924;2023-05-07T06:06:00;15.3;62.9
9666;DHT22;4871;52.004;5.924;2023-05-07T06:07:00;15.3;62.1
9666;DHT22;4871;52.004;5.924;2023-05-07T06:08:00;15.3;62.3
9666;DHT22;4871;52.004;5.924;2023-05-07T06:09:00;15.3;62.6
9666;DHT22;4871;52.004;5.924;2023-05-07T06:10:00;15.3;62.9
9666;DHT22;4871;52.004;5.924;2023-05-07T06:11:01;15.3;62.6
9666;DHT22;4871;52.004;5.924;2023-05-07T06:12:00;15.3;62.3
9666;DHT22;4871;52.004;5.924;2023-05-07T06:13:00;15.3;62.0
9666;DHT22;4871;52.004;5.924;2023-05-07T06:14:00;15.3;62.3
9666;DHT22;4871;52.004;5.924;2023-05-07T06:15:00;15.3;62.0
9666;DHT22;4871;52.004;5.924;2023-05-07T06:16:00;15.3;62.0
9666;DHT22;4871;52.004;5.924;2023-05-07T06:17:00;15.3;62.4
9666;DHT22;4871;52.004;5.924;2023-05-07T06:18:01;15.3;62.0
9666;DHT22;4871;52.004;5.924;2023-05-07T06:19:00;15.3;62.1
9666;DHT22;4871;52.004;5.924;2023-05-07T06:20:01;15.3;61.9
9666;DHT22;4871;52.004;5.924;2023-05-07T06:21:00;15.3;62.5
9666;DHT22;4871;52.004;5.924;2023-05-07T06:22:01;15.4;62.2
9666;DHT22;4871;52.004;5.924;2023-05-07T06:23:00;15.4;62.2
9666;DHT22;4871;52.004;5.924;2023-05-07T06:24:00;15.4;62.2
9666;DHT22;4871;52.004;5.924;2023-05-07T06:25:00;15.4;62.9
9666;DHT22;4871;52.004;5.924;2023-05-07T06:26:00;15.4;62.6
9666;DHT22;4871;52.004;5.924;2023-05-07T06:27:00;15.4;62.4
9666;DHT22;4871;52.004;5.924;2023-05-07T06:28:00;15.4;62.0
9666;DHT22;4871;52.004;5.924;2023-05-07T06:29:00;15.4;62.3
9666;DHT22;4871;52.004;5.924;2023-05-07T06:30:01;15.4;62.4
9666;DHT22;4871;52.004;5.924;2023-05-07T06:31:10;15.5;62.4
9666;DHT22;4871;52.004;5.924;2023-05-07T06:32:06;15.5;62.3
9666;DHT22;4871;52.004;5.924;2023-05-07T06:33:00;15.5;62.2
9666;DHT22;4871;52.004;5.924;2023-05-07T06:34:02;15.5;62.4
9666;DHT22;4871;52.004;5.924;2023-05-07T06:35:00;15.5;62.5
9666;DHT22;4871;52.004;5.924;2023-05-07T06:36:01;15.5;62.4
9666;DHT22;4871;52.004;5.924;2023-05-07T06:37:00;15.5;62.2
9666;DHT22;4871;52.004;5.924;2023-05-07T06:38:00;15.6;62.9
9666;DHT22;4871;52.004;5.924;2023-05-07T06:39:00;15.6;62.8
9666;DHT22;4871;52.004;5.924;2023-05-07T06:40:00;15.6;62.4
9666;DHT22;4871;52.004;5.924;2023-05-07T06:41:00;15.6;62.7
9666;DHT22;4871;52.004;5.924;2023-05-07T06:42:01;15.6;62.5
9666;DHT22;4871;52.004;5.924;2023-05-07T06:43:00;15.6;62.3
9666;DHT22;4871;52.004;5.924;2023-05-07T06:44:00;15.7;62.4